sensor_id;sensor_type;location;lat;lon;timestamp;P1;durP1;ratioP1;P2;durP2;ratioP2
60714;SDS011;46564;53.096;8.246;2023-04-15T00:02:02;1.58;;;1.35;;
60714;SDS011;46564;53.096;8.246;2023-04-15T00:07:14;1.85;;;1.20;;
60714;SDS011;46564;53.096;8.246;2023-04-15T00:12:16;0.57;;;0.57;;
60714;SDS011;46564;53.096;8.246;2023-04-15T00:17:17;2.85;;;1.33;;
60714;SDS011;46564;53.096;8.246;2023-04-15T00:22:19;0.90;;;0.77;;
60714;SDS011;46564;53.096;8.246;2023-04-15T00:27:21;3.13;;;1.60;;
60714;SDS011;46564;53.096;8.246;2023-04-15T00:32:23;2.83;;;1.73;;
60714;SDS011;46564;53.096;8.246;2023-04-15T00:37:25;1.92;;;0.90;;
60714;SDS011;46564;53.096;8.246;2023-04-15T00:42:26;1.52;;;1.20;;
60714;SDS011;46564;53.096;8.246;2023-04-15T00:47:28;1.63;;;0.75;;
60714;SDS011;46564;53.096;8.246;2023-04-15T00:52:32;1.85;;;0.98;;
60714;SDS011;46564;53.096;8.246;2023-04-15T00:57:35;2.10;;;1.15;;
60714;SDS011;46564;53.096;8.246;2023-04-15T01:02:37;1.90;;;1.20;;
60714;SDS011;46564;53.096;8.246;2023-04-15T01:07:39;1.58;;;0.90;;
60714;SDS011;46564;53.096;8.246;2023-04-15T01:12:41;0.95;;;0.77;;
60714;SDS011;46564;53.096;8.246;2023-04-15T01:17:43;4.85;;;1.75;;
60714;SDS011;46564;53.096;8.246;2023-04-15T01:22:45;1.38;;;0.63;;
60714;SDS011;46564;53.096;8.246;2023-04-15T01:27:46;4.35;;;1.83;;
60714;SDS011;46564;53.096;8.246;2023-04-15T01:32:49;1.92;;;1.10;;
60714;SDS011;46564;53.096;8.246;2023-04-15T01:37:53;3.65;;;1.48;;
60714;SDS011;46564;53.096;8.246;2023-04-15T01:42:57;1.90;;;1.02;;
60714;SDS011;46564;53.096;8.246;2023-04-15T01:47:58;3.50;;;1.52;;
60714;SDS011;46564;53.096;8.246;2023-04-15T01:53:01;2.42;;;1.33;;
60714;SDS011;46564;53.096;8.246;2023-04-15T01:58:02;7.53;;;2.25;;
60714;SDS011;46564;53.096;8.246;2023-04-15T02:03:04;2.38;;;1.30;;
60714;SDS011;46564;53.096;8.246;2023-04-15T02:08:06;2.67;;;1.50;;
60714;SDS011;46564;53.096;8.246;2023-04-15T02:13:11;3.08;;;1.58;;
60714;SDS011;46564;53.096;8.246;2023-04-15T02:18:13;4.43;;;1.98;;
60714;SDS011;46564;53.096;8.246;2023-04-15T02:23:17;4.88;;;1.90;;
60714;SDS011;46564;53.096;8.246;2023-04-15T02:28:18;3.83;;;2.08;;
60714;SDS011;46564;53.096;8.246;2023-04-15T02:33:20;2.50;;;1.65;;
60714;SDS011;46564;53.096;8.246;2023-04-15T02:38:23;2.10;;;1.48;;
60714;SDS011;46564;53.096;8.246;2023-04-15T02:43:25;1.95;;;1.35;;
60714;SDS011;46564;53.096;8.246;2023-04-15T02:48:26;3.25;;;1.88;;
60714;SDS011;46564;53.096;8.246;2023-04-15T02:53:29;3.30;;;1.63;;
60714;SDS011;46564;53.096;8.246;2023-04-15T02:58:32;3.53;;;2.00;;
60714;SDS011;46564;53.096;8.246;2023-04-15T03:03:35;6.60;;;2.65;;
60714;SDS011;46564;53.096;8.246;2023-04-15T03:08:37;6.57;;;2.80;;
60714;SDS011;46564;53.096;8.246;2023-04-15T03:13:39;3.47;;;2.03;;
60714;SDS011;46564;53.096;8.246;2023-04-15T03:18:48;2.85;;;1.88;;
60714;SDS011;46564;53.096;8.246;2023-04-15T03:23:53;4.82;;;2.25;;
60714;SDS011;46564;53.096;8.246;2023-04-15T03:28:55;4.20;;;2.05;;
60714;SDS011;46564;53.096;8.246;2023-04-15T03:33:57;4.07;;;2.10;;
60714;SDS011;46564;53.096;8.246;2023-04-15T03:38:58;3.03;;;1.55;;
60714;SDS011;46564;53.096;8.246;2023-04-15T03:44:02;2.05;;;1.40;;
60714;SDS011;46564;53.096;8.246;2023-04-15T03:49:05;2.45;;;1.77;;
60714;SDS011;46564;53.096;8.246;2023-04-15T03:54:07;1.65;;;1.25;;
60714;SDS011;46564;53.096;8.246;2023-04-15T03:59:09;4.55;;;2.13;;
60714;SDS011;46564;53.096;8.246;2023-04-15T04:04:11;5.68;;;1.38;;
60714;SDS011;46564;53.096;8.246;2023-04-15T04:09:13;3.22;;;1.52;;
60714;SDS011;46564;53.096;8.246;2023-04-15T04:14:15;5.63;;;2.33;;
60714;SDS011;46564;53.096;8.246;2023-04-15T04:19:16;3.10;;;1.67;;
60714;SDS011;46564;53.096;8.246;2023-04-15T04:24:20;3.97;;;1.92;;
60714;SDS011;46564;53.096;8.246;2023-04-15T04:29:22;1.90;;;1.48;;
60714;SDS011;46564;53.096;8.246;2023-04-15T04:34:23;2.47;;;1.60;;
60714;SDS011;46564;53.096;8.246;2023-04-15T04:39:25;4.30;;;2.35;;
60714;SDS011;46564;53.096;8.246;2023-04-15T04:44:26;3.05;;;1.65;;
60714;SDS011;46564;53.096;8.246;2023-04-15T04:49:28;2.78;;;1.75;;
60714;SDS011;46564;53.096;8.246;2023-04-15T04:54:30;3.30;;;1.88;;
60714;SDS011;46564;53.096;8.246;2023-04-15T04:59:32;2.20;;;1.40;;
60714;SDS011;46564;53.096;8.246;2023-04-15T05:04:34;5.03;;;2.58;;
60714;SDS011;46564;53.096;8.246;2023-04-15T05:09:37;3.55;;;1.90;;
60714;SDS011;46564;53.096;8.246;2023-04-15T05:14:39;3.60;;;2.03;;
60714;SDS011;46564;53.096;8.246;2023-04-15T05:19:41;4.38;;;1.88;;
60714;SDS011;46564;53.096;8.246;2023-04-15T05:24:43;5.20;;;2.22;;
60714;SDS011;46564;53.096;8.246;2023-04-15T05:29:45;4.22;;;2.17;;
60714;SDS011;46564;53.096;8.246;2023-04-15T05:34:46;3.67;;;1.98;;
60714;SDS011;46564;53.096;8.246;2023-04-15T05:39:48;4.43;;;2.15;;
60714;SDS011;46564;53.096;8.246;2023-04-15T05:44:50;4.03;;;1.83;;
60714;SDS011;46564;53.096;8.246;2023-04-15T05:49:52;3.25;;;1.75;;
60714;SDS011;46564;53.096;8.246;2023-04-15T05:54:53;13.00;;;3.13;;
60714;SDS011;46564;53.096;8.246;2023-04-15T05:59:55;4.20;;;2.35;;
60714;SDS011;46564;53.096;8.246;2023-04-15T06:04:57;6.57;;;2.13;;
60714;SDS011;46564;53.096;8.246;2023-04-15T06:09:59;5.70;;;2.90;;
60714;SDS011;46564;53.096;8.246;2023-04-15T06:15:01;5.13;;;2.17;;
60714;SDS011;46564;53.096;8.246;2023-04-15T06:20:02;8.10;;;2.67;;
60714;SDS011;46564;53.096;8.246;2023-04-15T06:25:05;5.00;;;2.67;;
60714;SDS011;46564;53.096;8.246;2023-04-15T06:30:08;7.63;;;3.38;;
60714;SDS011;46564;53.096;8.246;2023-04-15T06:35:10;5.68;;;2.67;;
60714;SDS011;46564;53.096;8.246;2023-04-15T06:40:13;5.28;;;2.78;;
60714;SDS011;46564;53.096;8.246;2023-04-15T06:45:14;6.55;;;2.92;;
60714;SDS011;46564;53.096;8.246;2023-04-15T06:50:16;6.07;;;2.83;;
60714;SDS011;46564;53.096;8.246;2023-04-15T06:55:18;8.38;;;2.78;;
60714;SDS011;46564;53.096;8.246;2023-04-15T07:00:20;4.95;;;2.28;;
60714;SDS011;46564;53.096;8.246;2023-04-15T07:05:22;6.35;;;2.97;;
60714;SDS011;46564;53.096;8.246;2023-04-15T07:10:25;5.55;;;2.03;;
60714;SDS011;46564;53.096;8.246;2023-04-15T07:15:27;4.43;;;1.95;;
60714;SDS011;46564;53.096;8.246;2023-04-15T07:20:29;5.18;;;2.00;;
60714;SDS011;46564;53.096;8.246;2023-04-15T07:25:31;2.50;;;1.20;;
60714;SDS011;46564;53.096;8.246;2023-04-15T07:30:32;2.17;;;1.15;;
60714;SDS011;46564;53.096;8.246;2023-04-15T07:35:34;3.00;;;1.25;;
60714;SDS011;46564;53.096;8.246;2023-04-15T07:40:37;3.58;;;1.08;;
60714;SDS011;46564;53.096;8.246;2023-04-15T07:45:39;1.70;;;0.93;;
60714;SDS011;46564;53.096;8.246;2023-04-15T07:50:41;1.60;;;1.02;;
60714;SDS011;46564;53.096;8.246;2023-04-15T07:55:44;3.75;;;1.48;;
60714;SDS011;46564;53.096;8.246;2023-04-15T08:00:45;1.55;;;1.02;;
60714;SDS011;46564;53.096;8.246;2023-04-15T08:05:47;1.02;;;0.60;;
60714;SDS011;46564;53.096;8.246;2023-04-15T08:10:49;3.47;;;1.45;;
60714;SDS011;46564;53.096;8.246;2023-04-15T08:16:12;3.20;;;1.23;;
60714;SDS011;46564;53.096;8.246;2023-04-15T08:21:15;3.42;;;1.13;;
60714;SDS011;46564;53.096;8.246;2023-04-15T08:26:19;0.98;;;0.70;;
60714;SDS011;46564;53.096;8.246;2023-04-15T08:31:21;1.55;;;1.00;;
60714;SDS011;46564;53.096;8.246;2023-04-15T08:36:23;1.95;;;1.02;;
60714;SDS011;46564;53.096;8.246;2023-04-15T08:41:25;2.92;;;1.33;;
60714;SDS011;46564;53.096;8.246;2023-04-15T08:46:32;1.55;;;0.65;;
60714;SDS011;46564;53.096;8.246;2023-04-15T08:51:35;1.25;;;0.57;;
60714;SDS011;46564;53.096;8.246;2023-04-15T08:56:37;1.23;;;0.70;;
60714;SDS011;46564;53.096;8.246;2023-04-15T09:01:39;1.17;;;0.52;;
60714;SDS011;46564;53.096;8.246;2023-04-15T09:06:42;0.85;;;0.60;;
60714;SDS011;46564;53.096;8.246;2023-04-15T09:11:44;1.30;;;0.60;;
60714;SDS011;46564;53.096;8.246;2023-04-15T09:16:59;2.97;;;1.15;;
60714;SDS011;46564;53.096;8.246;2023-04-15T09:22:02;2.17;;;1.20;;
60714;SDS011;46564;53.096;8.246;2023-04-15T09:27:04;1.50;;;0.95;;
60714;SDS011;46564;53.096;8.246;2023-04-15T09:32:11;2.08;;;1.10;;
60714;SDS011;46564;53.096;8.246;2023-04-15T09:37:14;1.23;;;0.65;;
60714;SDS011;46564;53.096;8.246;2023-04-15T09:42:32;2.08;;;0.80;;
60714;SDS011;46564;53.096;8.246;2023-04-15T09:47:33;2.17;;;1.05;;
60714;SDS011;46564;53.096;8.246;2023-04-15T09:52:39;2.05;;;1.20;;
60714;SDS011;46564;53.096;8.246;2023-04-15T09:57:44;1.58;;;1.00;;
60714;SDS011;46564;53.096;8.246;2023-04-15T10:02:47;1.42;;;0.80;;
60714;SDS011;46564;53.096;8.246;2023-04-15T10:07:50;1.15;;;0.60;;
60714;SDS011;46564;53.096;8.246;2023-04-15T10:12:51;1.10;;;0.70;;
60714;SDS011;46564;53.096;8.246;2023-04-15T10:17:54;1.52;;;0.75;;
60714;SDS011;46564;53.096;8.246;2023-04-15T10:22:58;0.70;;;0.55;;
60714;SDS011;46564;53.096;8.246;2023-04-15T10:28:00;0.82;;;0.50;;
60714;SDS011;46564;53.096;8.246;2023-04-15T10:33:03;1.13;;;0.82;;
60714;SDS011;46564;53.096;8.246;2023-04-15T10:43:53;1.83;;;0.77;;
60714;SDS011;46564;53.096;8.246;2023-04-15T10:48:55;1.90;;;0.57;;
60714;SDS011;46564;53.096;8.246;2023-04-15T10:53:59;1.55;;;0.95;;
60714;SDS011;46564;53.096;8.246;2023-04-15T10:59:02;0.85;;;0.57;;
60714;SDS011;46564;53.096;8.246;2023-04-15T11:04:05;3.42;;;1.00;;
60714;SDS011;46564;53.096;8.246;2023-04-15T11:09:07;1.45;;;0.82;;
60714;SDS011;46564;53.096;8.246;2023-04-15T11:14:39;1.73;;;0.90;;
60714;SDS011;46564;53.096;8.246;2023-04-15T11:19:44;1.50;;;0.65;;
60714;SDS011;46564;53.096;8.246;2023-04-15T11:24:47;1.08;;;0.63;;
60714;SDS011;46564;53.096;8.246;2023-04-15T11:29:50;2.20;;;1.30;;
60714;SDS011;46564;53.096;8.246;2023-04-15T11:34:53;3.28;;;1.00;;
60714;SDS011;46564;53.096;8.246;2023-04-15T11:39:55;2.63;;;1.63;;
60714;SDS011;46564;53.096;8.246;2023-04-15T11:45:06;2.25;;;0.93;;
60714;SDS011;46564;53.096;8.246;2023-04-15T11:50:18;1.27;;;0.60;;
60714;SDS011;46564;53.096;8.246;2023-04-15T11:55:24;1.60;;;0.73;;
60714;SDS011;46564;53.096;8.246;2023-04-15T12:00:26;2.22;;;0.80;;
60714;SDS011;46564;53.096;8.246;2023-04-15T12:05:29;4.60;;;1.33;;
60714;SDS011;46564;53.096;8.246;2023-04-15T12:10:30;3.30;;;1.40;;
60714;SDS011;46564;53.096;8.246;2023-04-15T12:15:32;2.45;;;1.23;;
60714;SDS011;46564;53.096;8.246;2023-04-15T12:20:42;2.53;;;1.13;;
60714;SDS011;46564;53.096;8.246;2023-04-15T12:25:50;2.83;;;1.60;;
60714;SDS011;46564;53.096;8.246;2023-04-15T12:30:53;2.03;;;1.15;;
60714;SDS011;46564;53.096;8.246;2023-04-15T12:35:55;4.25;;;1.40;;
60714;SDS011;46564;53.096;8.246;2023-04-15T12:40:57;5.00;;;2.03;;
60714;SDS011;46564;53.096;8.246;2023-04-15T12:45:59;2.10;;;1.42;;
60714;SDS011;46564;53.096;8.246;2023-04-15T12:51:01;4.80;;;1.45;;
60714;SDS011;46564;53.096;8.246;2023-04-15T12:56:06;7.00;;;2.28;;
60714;SDS011;46564;53.096;8.246;2023-04-15T13:01:08;7.82;;;2.92;;
60714;SDS011;46564;53.096;8.246;2023-04-15T13:06:10;6.47;;;2.60;;
60714;SDS011;46564;53.096;8.246;2023-04-15T13:11:12;4.80;;;2.50;;
60714;SDS011;46564;53.096;8.246;2023-04-15T13:16:14;8.88;;;2.20;;
60714;SDS011;46564;53.096;8.246;2023-04-15T13:21:15;6.30;;;2.42;;
60714;SDS011;46564;53.096;8.246;2023-04-15T13:26:18;5.88;;;3.28;;
60714;SDS011;46564;53.096;8.246;2023-04-15T13:31:20;7.18;;;2.90;;
60714;SDS011;46564;53.096;8.246;2023-04-15T13:36:22;10.70;;;3.45;;
60714;SDS011;46564;53.096;8.246;2023-04-15T13:41:23;8.80;;;3.25;;
60714;SDS011;46564;53.096;8.246;2023-04-15T13:46:25;7.05;;;2.85;;
60714;SDS011;46564;53.096;8.246;2023-04-15T13:51:26;8.10;;;3.33;;
60714;SDS011;46564;53.096;8.246;2023-04-15T13:56:28;11.35;;;4.75;;
60714;SDS011;46564;53.096;8.246;2023-04-15T14:01:33;9.02;;;3.78;;
60714;SDS011;46564;53.096;8.246;2023-04-15T14:06:35;11.23;;;3.90;;
60714;SDS011;46564;53.096;8.246;2023-04-15T14:11:37;9.68;;;3.95;;
60714;SDS011;46564;53.096;8.246;2023-04-15T14:16:39;11.10;;;4.40;;
60714;SDS011;46564;53.096;8.246;2023-04-15T14:21:41;11.32;;;4.07;;
60714;SDS011;46564;53.096;8.246;2023-04-15T14:26:42;9.07;;;4.10;;
60714;SDS011;46564;53.096;8.246;2023-04-15T14:31:44;12.65;;;5.70;;
60714;SDS011;46564;53.096;8.246;2023-04-15T14:37:06;11.00;;;5.18;;
60714;SDS011;46564;53.096;8.246;2023-04-15T14:42:08;13.70;;;6.47;;
60714;SDS011;46564;53.096;8.246;2023-04-15T14:47:10;13.50;;;6.30;;
60714;SDS011;46564;53.096;8.246;2023-04-15T14:52:12;14.30;;;5.90;;
60714;SDS011;46564;53.096;8.246;2023-04-15T14:57:14;14.70;;;5.63;;
60714;SDS011;46564;53.096;8.246;2023-04-15T15:02:16;14.95;;;6.32;;
60714;SDS011;46564;53.096;8.246;2023-04-15T15:07:38;17.08;;;7.95;;
60714;SDS011;46564;53.096;8.246;2023-04-15T15:12:42;20.27;;;7.60;;
60714;SDS011;46564;53.096;8.246;2023-04-15T15:17:43;20.75;;;7.82;;
60714;SDS011;46564;53.096;8.246;2023-04-15T15:22:45;16.60;;;7.78;;
60714;SDS011;46564;53.096;8.246;2023-04-15T15:27:47;17.60;;;8.32;;
60714;SDS011;46564;53.096;8.246;2023-04-15T15:32:49;17.77;;;7.72;;
60714;SDS011;46564;53.096;8.246;2023-04-15T15:37:51;15.77;;;7.50;;
60714;SDS011;46564;53.096;8.246;2023-04-15T15:42:56;18.38;;;8.05;;
60714;SDS011;46564;53.096;8.246;2023-04-15T15:47:58;18.40;;;8.57;;
60714;SDS011;46564;53.096;8.246;2023-04-15T15:53:01;22.13;;;9.57;;
60714;SDS011;46564;53.096;8.246;2023-04-15T15:58:03;17.83;;;8.07;;
60714;SDS011;46564;53.096;8.246;2023-04-15T16:03:04;24.60;;;9.63;;
60714;SDS011;46564;53.096;8.246;2023-04-15T16:08:08;22.55;;;8.93;;
60714;SDS011;46564;53.096;8.246;2023-04-15T16:13:10;22.73;;;8.25;;
60714;SDS011;46564;53.096;8.246;2023-04-15T16:18:12;22.90;;;10.27;;
60714;SDS011;46564;53.096;8.246;2023-04-15T16:23:14;16.70;;;8.70;;
60714;SDS011;46564;53.096;8.246;2023-04-15T16:28:17;18.35;;;8.00;;
60714;SDS011;46564;53.096;8.246;2023-04-15T16:33:27;16.38;;;8.02;;
60714;SDS011;46564;53.096;8.246;2023-04-15T16:38:29;18.20;;;7.88;;
60714;SDS011;46564;53.096;8.246;2023-04-15T16:43:31;15.82;;;7.72;;
60714;SDS011;46564;53.096;8.246;2023-04-15T16:48:33;21.10;;;7.88;;
60714;SDS011;46564;53.096;8.246;2023-04-15T16:53:35;15.95;;;7.43;;
60714;SDS011;46564;53.096;8.246;2023-04-15T16:58:37;14.50;;;7.95;;
60714;SDS011;46564;53.096;8.246;2023-04-15T17:03:39;17.00;;;7.82;;
60714;SDS011;46564;53.096;8.246;2023-04-15T17:08:42;14.95;;;7.38;;
60714;SDS011;46564;53.096;8.246;2023-04-15T17:13:45;15.57;;;7.60;;
60714;SDS011;46564;53.096;8.246;2023-04-15T17:18:47;21.63;;;7.93;;
60714;SDS011;46564;53.096;8.246;2023-04-15T17:23:50;15.60;;;6.30;;
60714;SDS011;46564;53.096;8.246;2023-04-15T17:28:52;14.70;;;5.85;;
60714;SDS011;46564;53.096;8.246;2023-04-15T17:33:54;12.75;;;6.50;;
60714;SDS011;46564;53.096;8.246;2023-04-15T17:39:11;17.50;;;7.88;;
60714;SDS011;46564;53.096;8.246;2023-04-15T17:44:14;14.00;;;7.50;;
60714;SDS011;46564;53.096;8.246;2023-04-15T17:49:16;16.50;;;7.32;;
60714;SDS011;46564;53.096;8.246;2023-04-15T17:54:18;15.35;;;6.88;;
60714;SDS011;46564;53.096;8.246;2023-04-15T17:59:19;15.73;;;6.80;;
60714;SDS011;46564;53.096;8.246;2023-04-15T18:04:21;12.43;;;6.13;;
60714;SDS011;46564;53.096;8.246;2023-04-15T18:09:27;14.25;;;6.40;;
60714;SDS011;46564;53.096;8.246;2023-04-15T18:14:28;12.40;;;6.80;;
60714;SDS011;46564;53.096;8.246;2023-04-15T18:19:35;13.55;;;6.35;;
60714;SDS011;46564;53.096;8.246;2023-04-15T18:24:37;13.55;;;6.93;;
60714;SDS011;46564;53.096;8.246;2023-04-15T18:29:39;13.30;;;6.82;;
60714;SDS011;46564;53.096;8.246;2023-04-15T18:34:41;12.23;;;6.30;;
60714;SDS011;46564;53.096;8.246;2023-04-15T18:39:43;15.50;;;6.65;;
60714;SDS011;46564;53.096;8.246;2023-04-15T18:44:45;12.20;;;5.90;;
60714;SDS011;46564;53.096;8.246;2023-04-15T18:49:47;14.95;;;6.65;;
60714;SDS011;46564;53.096;8.246;2023-04-15T18:54:49;13.15;;;5.90;;
60714;SDS011;46564;53.096;8.246;2023-04-15T18:59:50;16.58;;;6.85;;
60714;SDS011;46564;53.096;8.246;2023-04-15T19:04:52;12.10;;;6.03;;
60714;SDS011;46564;53.096;8.246;2023-04-15T19:09:54;13.68;;;6.32;;
60714;SDS011;46564;53.096;8.246;2023-04-15T19:14:56;12.90;;;6.82;;
60714;SDS011;46564;53.096;8.246;2023-04-15T19:19:57;18.83;;;6.13;;
60714;SDS011;46564;53.096;8.246;2023-04-15T19:24:59;14.43;;;6.72;;
60714;SDS011;46564;53.096;8.246;2023-04-15T19:30:01;12.48;;;6.45;;
60714;SDS011;46564;53.096;8.246;2023-04-15T19:35:03;12.10;;;6.05;;
60714;SDS011;46564;53.096;8.246;2023-04-15T19:40:05;14.23;;;6.63;;
60714;SDS011;46564;53.096;8.246;2023-04-15T19:45:08;12.80;;;6.43;;
60714;SDS011;46564;53.096;8.246;2023-04-15T19:50:10;11.57;;;6.85;;
60714;SDS011;46564;53.096;8.246;2023-04-15T19:55:13;13.98;;;6.13;;
60714;SDS011;46564;53.096;8.246;2023-04-15T20:00:14;11.85;;;6.85;;
60714;SDS011;46564;53.096;8.246;2023-04-15T20:05:17;13.48;;;5.93;;
60714;SDS011;46564;53.096;8.246;2023-04-15T20:10:19;13.25;;;6.43;;
60714;SDS011;46564;53.096;8.246;2023-04-15T20:15:22;11.73;;;5.00;;
60714;SDS011;46564;53.096;8.246;2023-04-15T20:20:24;15.05;;;7.13;;
60714;SDS011;46564;53.096;8.246;2023-04-15T20:25:26;14.13;;;7.10;;
60714;SDS011;46564;53.096;8.246;2023-04-15T20:30:28;12.38;;;5.95;;
60714;SDS011;46564;53.096;8.246;2023-04-15T20:35:31;12.45;;;5.93;;
60714;SDS011;46564;53.096;8.246;2023-04-15T20:40:34;11.75;;;5.95;;
60714;SDS011;46564;53.096;8.246;2023-04-15T20:45:35;14.52;;;6.75;;
60714;SDS011;46564;53.096;8.246;2023-04-15T20:50:37;14.00;;;5.93;;
60714;SDS011;46564;53.096;8.246;2023-04-15T20:55:39;11.68;;;5.50;;
60714;SDS011;46564;53.096;8.246;2023-04-15T21:00:41;15.18;;;6.22;;
60714;SDS011;46564;53.096;8.246;2023-04-15T21:05:43;12.20;;;6.07;;
60714;SDS011;46564;53.096;8.246;2023-04-15T21:10:44;14.07;;;5.68;;
60714;SDS011;46564;53.096;8.246;2023-04-15T21:15:46;9.85;;;5.93;;
60714;SDS011;46564;53.096;8.246;2023-04-15T21:20:57;11.63;;;5.53;;
60714;SDS011;46564;53.096;8.246;2023-04-15T21:26:02;16.67;;;5.95;;
60714;SDS011;46564;53.096;8.246;2023-04-15T21:31:05;14.02;;;6.43;;
60714;SDS011;46564;53.096;8.246;2023-04-15T21:36:07;10.57;;;5.25;;
60714;SDS011;46564;53.096;8.246;2023-04-15T21:41:08;10.25;;;4.57;;
60714;SDS011;46564;53.096;8.246;2023-04-15T21:46:10;11.98;;;6.32;;
60714;SDS011;46564;53.096;8.246;2023-04-15T21:51:25;11.27;;;5.90;;
60714;SDS011;46564;53.096;8.246;2023-04-15T21:56:27;9.52;;;4.82;;
60714;SDS011;46564;53.096;8.246;2023-04-15T22:01:28;12.90;;;5.72;;
60714;SDS011;46564;53.096;8.246;2023-04-15T22:06:30;12.23;;;6.20;;
60714;SDS011;46564;53.096;8.246;2023-04-15T22:11:32;11.25;;;6.10;;
60714;SDS011;46564;53.096;8.246;2023-04-15T22:16:34;15.93;;;5.97;;
60714;SDS011;46564;53.096;8.246;2023-04-15T22:21:36;11.75;;;5.40;;
60714;SDS011;46564;53.096;8.246;2023-04-15T22:26:37;11.75;;;5.72;;
60714;SDS011;46564;53.096;8.246;2023-04-15T22:31:39;12.35;;;6.00;;
60714;SDS011;46564;53.096;8.246;2023-04-15T22:36:42;12.30;;;5.18;;
60714;SDS011;46564;53.096;8.246;2023-04-15T22:41:46;14.23;;;6.05;;
60714;SDS011;46564;53.096;8.246;2023-04-15T22:46:51;13.25;;;5.90;;
60714;SDS011;46564;53.096;8.246;2023-04-15T22:51:52;10.45;;;5.63;;
60714;SDS011;46564;53.096;8.246;2023-04-15T22:56:54;10.57;;;4.90;;
60714;SDS011;46564;53.096;8.246;2023-04-15T23:01:56;12.50;;;6.43;;
60714;SDS011;46564;53.096;8.246;2023-04-15T23:06:59;9.85;;;5.40;;
60714;SDS011;46564;53.096;8.246;2023-04-15T23:12:02;16.27;;;6.60;;
60714;SDS011;46564;53.096;8.246;2023-04-15T23:17:04;10.93;;;5.32;;
60714;SDS011;46564;53.096;8.246;2023-04-15T23:22:06;11.07;;;5.25;;
60714;SDS011;46564;53.096;8.246;2023-04-15T23:27:10;11.50;;;5.32;;
60714;SDS011;46564;53.096;8.246;2023-04-15T23:32:12;10.23;;;5.22;;
60714;SDS011;46564;53.096;8.246;2023-04-15T23:37:15;10.85;;;5.45;;
60714;SDS011;46564;53.096;8.246;2023-04-15T23:42:18;12.00;;;6.32;;
60714;SDS011;46564;53.096;8.246;2023-04-15T23:47:20;12.40;;;5.07;;
60714;SDS011;46564;53.096;8.246;2023-04-15T23:52:24;11.05;;;5.28;;
60714;SDS011;46564;53.096;8.246;2023-04-15T23:57:25;9.63;;;5.25;;
